Time;durP1;ratioP1;P1;durP2;ratioP2;P2;SDS_P1;SDS_P2;PMS_P1;PMS_P2;Temp;Humidity;BMP_temperature;BMP_pressure;BME280_temperature;BME280_humidity;BME280_pressure;Samples;Min_cycle;Max_cycle;Signal;HPM_P1;HPM_P2
2022/04/18 05:32:28;;;;;;;4.85;2.20;;;;;;;8.43;57.15;98555.78;5141921;27;20359;-59
2022/04/18 05:34:54;;;;;;;7.47;2.45;;;;;;;8.60;57.21;98558.69;5081889;28;20046;-58
2022/04/18 05:37:19;;;;;;;7.18;2.55;;;;;;;8.69;57.61;98550.13;5092017;28;20042;-61
2022/04/18 05:39:44;;;;;;;5.90;2.40;;;;;;;8.81;57.32;98553.38;5091100;28;20032;-61
2022/04/18 05:42:10;;;;;;;6.05;2.30;;;;;;;8.86;55.57;98551.22;5074079;28;20031;-60
2022/04/18 05:44:35;;;;;;;6.43;2.40;;;;;;;9.03;55.03;98553.16;5088567;28;20047;-61
2022/04/18 05:47:01;;;;;;;6.97;2.30;;;;;;;9.07;55.02;98547.66;5089748;28;20092;-61
2022/04/18 05:49:26;;;;;;;6.72;2.53;;;;;;;9.09;54.65;98548.34;5055511;28;20519;-59
2022/04/18 05:51:52;;;;;;;8.63;2.13;;;;;;;8.82;54.42;98514.38;5072022;28;20030;-60
2022/04/18 05:54:17;;;;;;;6.00;2.13;;;;;;;9.02;54.22;98551.50;5070662;28;20515;-60
2022/04/18 05:56:43;;;;;;;4.90;2.10;;;;;;;8.66;55.10;98504.53;5073332;28;20135;-60
2022/04/18 05:59:08;;;;;;;9.50;2.50;;;;;;;8.85;55.16;98545.22;5070601;28;20035;-58
2022/04/18 06:01:35;;;;;;;10.13;2.47;;;;;;;9.01;54.64;98530.88;5074853;28;20546;-61
2022/04/18 06:04:01;;;;;;;5.43;2.35;;;;;;;9.15;55.10;98537.44;5106314;27;20048;-58
2022/04/18 06:06:27;;;;;;;7.00;2.20;;;;;;;9.15;54.26;98535.66;5058866;28;20124;-58
2022/04/18 06:08:52;;;;;;;5.45;2.20;;;;;;;9.06;53.96;98499.38;5107598;27;20033;-60
2022/04/18 06:11:17;;;;;;;6.50;2.50;;;;;;;9.32;54.00;98523.75;5067979;28;20074;-61
2022/04/18 06:13:43;;;;;;;6.68;2.22;;;;;;;9.34;53.90;98524.44;5073161;28;20508;-58
2022/04/18 06:16:08;;;;;;;5.47;2.40;;;;;;;9.42;53.89;98545.34;5074464;28;20032;-59
2022/04/18 06:18:34;;;;;;;5.75;2.10;;;;;;;9.49;54.11;98542.16;5073016;28;20032;-59
2022/04/18 06:20:59;;;;;;;5.05;2.22;;;;;;;9.56;54.22;98538.88;5073114;28;20110;-61
2022/04/18 06:23:25;;;;;;;5.75;2.20;;;;;;;9.58;53.04;98538.72;5075179;28;20749;-60
2022/04/18 06:25:50;;;;;;;4.63;2.03;;;;;;;9.57;53.20;98532.72;5083599;28;20031;-60
2022/04/18 06:28:16;;;;;;;5.45;2.30;;;;;;;9.47;53.02;98518.13;5074612;28;20035;-62
2022/04/18 06:30:42;;;;;;;5.80;2.22;;;;;;;9.60;52.63;98529.03;5089540;28;20050;-59
2022/04/18 06:33:12;;;;;;;7.50;2.50;;;;;;;9.70;52.83;98527.25;5074129;28;20127;-59
2022/04/18 06:35:38;;;;;;;6.97;2.22;;;;;;;9.73;52.89;98534.75;5073221;28;20040;-60
2022/04/18 06:38:04;;;;;;;5.65;2.25;;;;;;;9.59;52.94;98514.44;5055402;28;20042;-59
2022/04/18 06:40:30;;;;;;;5.80;2.35;;;;;;;9.74;52.96;98523.38;5078216;28;20044;-60
2022/04/18 06:42:55;;;;;;;6.35;2.13;;;;;;;9.56;54.29;98510.31;5031738;28;20462;-64
2022/04/18 06:45:21;;;;;;;6.65;2.20;;;;;;;9.49;53.89;98519.66;5040017;28;20503;-63
2022/04/18 06:47:46;;;;;;;6.30;2.55;;;;;;;9.56;54.74;98525.09;5055999;28;20078;-60
2022/04/18 06:50:12;;;;;;;5.53;2.45;;;;;;;9.49;54.86;98503.25;5061566;28;20386;-61
2022/04/18 06:52:44;;;;;;;8.43;2.60;;;;;;;9.56;54.97;98509.50;5063944;28;20105;-59
2022/04/18 06:55:10;;;;;;;5.85;2.58;;;;;;;9.69;55.68;98515.22;5053222;28;20027;-62
2022/04/18 06:57:35;;;;;;;9.93;2.60;;;;;;;9.66;55.29;98523.28;5061858;28;20707;-60
2022/04/18 07:00:04;;;;;;;9.85;2.85;;;;;;;9.62;56.25;98517.56;5054513;28;20040;-64
2022/04/18 07:02:30;;;;;;;5.57;2.55;;;;;;;9.59;56.38;98512.63;5091671;27;20089;-62
2022/04/18 07:04:55;;;;;;;8.63;2.95;;;;;;;9.54;55.93;98512.25;5051042;28;20030;-61
2022/04/18 07:07:20;;;;;;;6.82;2.85;;;;;;;9.48;55.70;98507.63;5059101;28;20086;-60
2022/04/18 07:09:46;;;;;;;5.97;2.67;;;;;;;9.51;55.88;98515.13;5058051;28;20094;-63
2022/04/18 07:12:11;;;;;;;7.82;2.70;;;;;;;9.53;55.57;98505.44;5054887;28;20456;-62
2022/04/18 07:14:38;;;;;;;5.70;2.65;;;;;;;9.52;55.52;98511.56;5054129;28;20122;-61
2022/04/18 07:17:05;;;;;;;6.75;2.60;;;;;;;9.52;55.77;98511.56;5053169;28;20033;-59
2022/04/18 07:19:31;;;;;;;7.60;2.65;;;;;;;9.51;56.03;98509.94;5050119;28;20514;-62
2022/04/18 07:21:57;;;;;;;7.13;2.72;;;;;;;9.54;55.58;98509.63;5049932;28;20040;-61
2022/04/18 07:24:23;;;;;;;7.75;2.47;;;;;;;9.49;55.88;98506.69;5042325;28;20040;-58
2022/04/18 07:26:49;;;;;;;5.97;2.80;;;;;;;9.47;56.21;98499.97;5057559;28;20040;-60
2022/04/18 07:29:14;;;;;;;6.30;2.63;;;;;;;9.39;56.08;98495.47;5064094;28;20399;-58
2022/04/18 07:31:40;;;;;;;9.68;2.75;;;;;;;9.38;56.29;98493.84;5069425;28;20113;-60
2022/04/18 07:34:05;;;;;;;5.90;2.67;;;;;;;9.44;55.17;98493.28;5094301;27;20036;-60
2022/04/18 07:36:31;;;;;;;7.65;3.05;;;;;;;9.20;54.19;98441.88;5053310;28;20032;-61
2022/04/18 07:38:56;;;;;;;6.38;2.83;;;;;;;9.47;54.85;98479.22;5054860;28;20628;-61
2022/04/18 07:41:27;;;;;;;12.02;3.38;;;;;;;9.47;54.59;98484.41;5045548;28;20048;-61
2022/04/18 07:43:54;;;;;;;6.90;2.88;;;;;;;9.42;55.46;98477.84;5064883;28;20413;-59
2022/04/18 07:46:20;;;;;;;6.88;2.45;;;;;;;9.34;53.25;98479.50;5054472;28;20098;-58
2022/04/18 07:48:47;;;;;;;6.50;2.70;;;;;;;9.39;52.05;98465.16;5051403;28;20107;-62
2022/04/18 07:53:56;;;;;;;9.20;4.25;;;;;;;9.50;47.71;98461.56;5056293;28;20134;-60
2022/04/18 07:56:22;;;;;;;22.23;12.32;;;;;;;9.63;45.84;98461.25;5057233;28;20032;-61
2022/04/18 07:58:48;;;;;;;49.20;30.23;;;;;;;9.69;45.01;98458.13;5051100;28;20462;-60
2022/04/18 08:01:13;;;;;;;11.77;6.30;;;;;;;9.79;43.13;98447.69;5045973;28;20120;-60
2022/04/18 08:03:39;;;;;;;8.20;3.72;;;;;;;9.59;41.95;98390.63;5060166;28;20124;-59
2022/04/18 08:06:05;;;;;;;7.50;3.08;;;;;;;9.96;42.01;98443.47;5086049;27;20037;-62
2022/04/18 08:08:31;;;;;;;6.50;2.80;;;;;;;9.90;42.61;98429.31;5042371;28;20024;-62
2022/04/18 08:10:57;;;;;;;6.82;3.30;;;;;;;10.04;41.97;98440.16;5052567;28;20516;-64
2022/04/18 08:13:23;;;;;;;7.18;3.13;;;;;;;9.80;42.23;98390.41;5051009;28;20028;-60
2022/04/18 08:15:48;;;;;;;5.78;2.40;;;;;;;10.14;43.11;98436.53;5063955;28;20036;-59
2022/04/18 08:18:14;;;;;;;6.28;2.38;;;;;;;10.12;41.70;98427.28;5051208;28;20032;-58
2022/04/18 08:20:40;;;;;;;5.75;2.20;;;;;;;10.19;41.38;98439.53;5052201;28;20383;-58
2022/04/18 08:23:05;;;;;;;4.55;2.05;;;;;;;10.21;40.94;98423.78;5069561;28;20029;-61
2022/04/18 08:25:31;;;;;;;5.57;2.38;;;;;;;10.34;40.73;98429.47;5042457;28;20044;-60
2022/04/18 08:27:56;;;;;;;5.00;2.20;;;;;;;11.37;39.01;98415.94;5053150;28;20431;-61
2022/04/18 08:30:22;;;;;;;6.35;2.40;;;;;;;13.37;35.75;98381.22;5047700;28;20111;-59
2022/04/18 08:32:47;;;;;;;5.55;2.08;;;;;;;15.69;31.64;98428.09;5036966;28;20040;-62
2022/04/18 08:35:12;;;;;;;6.03;2.55;;;;;;;16.67;30.52;98433.84;5054497;28;20035;-65
2022/04/18 08:37:38;;;;;;;6.47;2.85;;;;;;;17.51;29.20;98426.22;5037362;28;20028;-61
2022/04/18 08:40:10;;;;;;;6.38;2.95;;;;;;;18.10;28.25;98401.19;5052512;28;20032;-63
2022/04/18 08:42:37;;;;;;;9.02;2.97;;;;;;;18.35;27.37;98375.13;5051461;28;20036;-64
2022/04/18 08:45:05;;;;;;;5.70;3.00;;;;;;;18.97;26.92;98405.56;5050559;28;20045;-62
2022/04/18 08:52:58;;;;;;;9.18;6.25;;;;;;;19.03;29.38;98393.41;5053397;28;20082;-61
2022/04/18 08:55:24;;;;;;;20.73;12.80;;;;;;;18.23;28.89;98381.00;5049365;28;20453;-62
2022/04/18 08:57:49;;;;;;;12.18;6.53;;;;;;;17.19;29.50;98381.13;5049879;28;20040;-58
2022/04/18 09:00:15;;;;;;;7.32;3.70;;;;;;;16.12;31.27;98385.47;5055317;28;20036;-60
2022/04/18 09:02:40;;;;;;;10.73;4.80;;;;;;;15.53;32.72;98381.09;5047535;28;20033;-61
2022/04/18 09:05:11;;;;;;;9.25;3.63;;;;;;;14.74;33.42;98386.81;5036292;28;20024;-62
2022/04/18 09:07:36;;;;;;;8.98;3.20;;;;;;;14.40;34.12;98375.78;5040570;28;20024;-60
2022/04/18 09:10:02;;;;;;;5.18;2.60;;;;;;;14.16;35.23;98365.47;5060357;28;20417;-61
2022/04/18 09:12:29;;;;;;;6.22;2.95;;;;;;;14.03;34.73;98369.47;5042937;28;20185;-59
2022/04/18 09:14:55;;;;;;;8.45;2.90;;;;;;;13.99;34.52;98362.97;5051257;28;20127;-61
2022/04/18 09:17:31;;;;;;;6.45;2.90;;;;;;;13.95;35.25;98353.03;5054838;28;20406;-60
2022/04/18 09:20:03;;;;;;;6.25;3.00;;;;;;;13.71;35.49;98353.97;5048171;28;20038;-61
2022/04/18 09:22:28;;;;;;;6.78;3.00;;;;;;;13.42;36.65;98356.22;5055215;28;20029;-59
2022/04/18 09:24:54;;;;;;;7.30;3.10;;;;;;;13.52;37.09;98348.19;5052643;28;20153;-61
2022/04/18 09:27:29;;;;;;;7.80;3.65;;;;;;;13.71;35.55;98349.56;5066945;28;20044;-59
2022/04/18 09:30:02;;;;;;;6.18;2.92;;;;;;;13.69;35.54;98345.50;5035814;28;20052;-60
2022/04/18 09:32:27;;;;;;;6.28;3.15;;;;;;;13.61;34.65;98346.34;5044566;28;20040;-61
2022/04/18 09:35:00;;;;;;;6.47;2.88;;;;;;;13.76;34.40;98349.03;5060009;28;21383;-59
2022/04/18 09:37:28;;;;;;;6.53;2.60;;;;;;;13.86;34.32;98341.00;5059259;28;20147;-64
2022/04/18 09:39:54;;;;;;;6.13;2.60;;;;;;;13.67;34.46;98331.78;5046223;28;20051;-62
2022/04/18 09:42:25;;;;;;;7.95;3.10;;;;;;;13.73;33.76;98333.72;5049607;28;20701;-62
2022/04/18 09:44:51;;;;;;;5.45;2.80;;;;;;;13.79;33.84;98328.63;5052376;28;20033;-64
2022/04/18 09:47:18;;;;;;;12.52;6.70;;;;;;;13.78;34.75;98329.63;5043537;28;20113;-62
2022/04/18 09:49:45;;;;;;;7.85;3.00;;;;;;;13.62;34.21;98327.09;5055365;28;20035;-62
2022/04/18 09:52:11;;;;;;;6.57;3.95;;;;;;;13.72;33.47;98322.44;5036686;28;20214;-60
2022/04/18 09:54:51;;;;;;;6.15;3.00;;;;;;;13.67;34.76;98306.47;5065133;28;20088;-60
2022/04/18 09:57:29;;;;;;;7.30;3.13;;;;;;;13.75;34.99;98314.28;5069751;28;20025;-63
2022/04/18 09:59:56;;;;;;;6.82;3.05;;;;;;;13.91;35.03;98313.38;5057619;28;20032;-60
2022/04/18 10:02:24;;;;;;;5.32;2.92;;;;;;;13.90;34.65;98303.09;5032718;28;20515;-60
2022/04/18 10:04:49;;;;;;;8.00;3.10;;;;;;;13.83;33.85;98293.31;5048284;28;20131;-60
2022/04/18 10:07:16;;;;;;;8.63;3.33;;;;;;;13.90;34.65;98300.47;5037183;28;20036;-63
2022/04/18 10:09:42;;;;;;;7.93;3.55;;;;;;;13.88;34.75;98295.41;5048765;28;20021;-62
2022/04/18 10:12:09;;;;;;;6.72;3.22;;;;;;;13.88;34.31;98286.78;5030267;28;22139;-60
2022/04/18 10:14:36;;;;;;;7.25;3.08;;;;;;;13.91;34.23;98286.41;5069646;28;20780;-62
2022/04/18 10:17:02;;;;;;;5.25;2.88;;;;;;;14.00;34.96;98280.13;5048700;28;20040;-61
2022/04/18 10:19:38;;;;;;;10.30;3.30;;;;;;;14.15;34.96;98267.13;5044727;28;20040;-63
2022/04/18 10:22:40;;;;;;;6.35;2.85;;;;;;;14.31;34.63;98271.38;5060355;28;20080;-60
2022/04/18 10:25:25;;;;;;;8.55;2.83;;;;;;;14.23;34.15;98272.28;5053402;28;20067;-64
2022/04/18 10:28:01;;;;;;;6.68;2.88;;;;;;;14.64;32.75;98261.47;5062516;28;20025;-60
2022/04/18 10:30:27;;;;;;;6.82;2.97;;;;;;;14.53;33.65;98261.88;5062071;28;20028;-61
2022/04/18 10:32:54;;;;;;;6.88;2.90;;;;;;;14.27;33.54;98220.44;5059653;28;20028;-61
2022/04/18 10:35:21;;;;;;;7.65;3.30;;;;;;;14.63;32.66;98254.63;5056504;28;20056;-59
2022/04/18 10:37:53;;;;;;;6.45;3.10;;;;;;;14.61;33.13;98252.16;5049318;28;20053;-63
2022/04/18 10:40:19;;;;;;;6.05;3.20;;;;;;;14.55;33.53;98247.63;5047109;28;20605;-61
2022/04/18 10:42:45;;;;;;;9.18;3.42;;;;;;;14.57;33.83;98240.44;5057262;28;20031;-63
2022/04/18 10:45:11;;;;;;;7.60;3.55;;;;;;;14.83;31.79;98241.00;5038158;28;20028;-64
2022/04/18 10:47:55;;;;;;;7.47;3.33;;;;;;;14.72;33.37;98235.22;5045543;28;20542;-62
2022/04/18 10:50:22;;;;;;;8.65;3.53;;;;;;;14.76;33.93;98222.59;5043911;28;20836;-61
2022/04/18 10:53:08;;;;;;;8.73;3.35;;;;;;;14.78;33.55;98228.44;5061756;28;20036;-61
2022/04/18 10:55:35;;;;;;;8.32;3.38;;;;;;;14.82;33.85;98231.50;5050825;28;20044;-61
2022/04/18 10:58:16;;;;;;;8.13;3.65;;;;;;;14.83;33.74;98209.59;5041888;28;20016;-62
2022/04/18 11:01:02;;;;;;;6.97;3.40;;;;;;;14.92;33.59;98226.81;5046624;28;20091;-61
2022/04/18 11:03:46;;;;;;;6.68;3.13;;;;;;;14.69;32.74;98208.59;5050722;28;20031;-62
2022/04/18 11:06:18;;;;;;;7.43;3.42;;;;;;;14.78;33.87;98213.56;5066862;28;20040;-60
2022/04/18 11:09:02;;;;;;;8.15;3.47;;;;;;;14.90;33.74;98213.13;5057534;28;20028;-62
2022/04/18 11:11:40;;;;;;;8.95;3.55;;;;;;;14.82;34.03;98187.81;5062484;28;20056;-61
2022/04/18 11:14:27;;;;;;;6.70;3.50;;;;;;;14.79;33.69;98172.50;5048255;28;20061;-62
2022/04/18 11:17:00;;;;;;;8.80;4.53;;;;;;;15.07;33.56;98205.84;5053143;28;20033;-60
2022/04/18 11:19:27;;;;;;;10.43;4.28;;;;;;;15.07;32.71;98198.81;5080243;28;20031;-61
2022/04/18 11:21:57;;;;;;;8.10;3.95;;;;;;;15.04;33.16;98188.72;5029110;28;20411;-61
2022/04/18 11:24:37;;;;;;;6.93;3.33;;;;;;;14.98;33.70;98187.63;5056303;28;20028;-62
2022/04/18 11:27:15;;;;;;;8.18;3.78;;;;;;;14.86;33.42;98146.41;5048379;28;20482;-63
2022/04/18 11:29:52;;;;;;;8.63;4.45;;;;;;;15.05;33.11;98173.81;5060067;28;20475;-63
2022/04/18 11:32:20;;;;;;;7.93;4.35;;;;;;;14.93;32.80;98152.53;5045108;28;20467;-59
2022/04/18 11:34:50;;;;;;;8.38;3.67;;;;;;;15.04;32.99;98177.41;5076769;27;20430;-61
2022/04/18 11:37:25;;;;;;;6.82;3.10;;;;;;;15.00;33.43;98169.13;5044336;28;20036;-60
2022/04/18 11:39:57;;;;;;;6.10;3.13;;;;;;;15.17;33.22;98151.41;5041095;28;20083;-63
2022/04/18 11:42:24;;;;;;;9.18;3.53;;;;;;;15.42;32.71;98170.16;5062557;28;20049;-59
2022/04/18 11:44:52;;;;;;;7.25;3.58;;;;;;;15.22;32.84;98167.34;5044969;28;20028;-62
2022/04/18 11:47:26;;;;;;;9.05;3.70;;;;;;;15.26;32.64;98152.06;5029984;28;20025;-60
2022/04/18 11:49:56;;;;;;;6.93;3.78;;;;;;;15.42;32.53;98159.69;5044460;28;20032;-62
2022/04/18 11:52:25;;;;;;;;;;;;;;;15.56;33.01;98161.44;5045671;28;20071;-62
2022/04/18 11:55:02;;;;;;;8.77;3.97;;;;;;;15.68;32.79;98159.16;5075847;27;19973;-62
2022/04/18 11:57:30;;;;;;;8.73;3.95;;;;;;;15.71;32.85;98157.94;5041331;28;20020;-60
2022/04/18 11:59:56;;;;;;;9.25;4.05;;;;;;;15.73;32.95;98158.56;5053631;28;20071;-62
2022/04/18 12:06:44;;;;;;;7.53;3.55;;;;;;;15.77;32.17;98144.13;5058473;28;20048;-60
2022/04/18 12:08:02;;;;;;;6.65;4.00;;;;;;;15.60;32.77;98106.84;5053464;28;20118;-60
2022/04/18 12:10:31;;;;;;;9.77;4.22;;;;;;;15.89;31.93;98131.31;5082362;27;20047;-58
2022/04/18 12:12:58;;;;;;;7.10;3.65;;;;;;;15.91;31.89;98137.16;5045699;28;20056;-62
2022/04/18 12:15:25;;;;;;;5.70;3.60;;;;;;;15.85;32.69;98120.41;5049095;28;20470;-58
2022/04/18 12:17:52;;;;;;;9.95;3.70;;;;;;;16.06;32.19;98124.78;5047250;28;20048;-60
2022/04/18 12:20:29;;;;;;;7.15;3.50;;;;;;;16.03;32.47;98127.00;5036103;28;20094;-60
2022/04/18 12:22:58;;;;;;;7.05;3.72;;;;;;;16.00;32.11;98120.28;5045799;28;20059;-63
2022/04/18 12:25:30;;;;;;;7.22;3.40;;;;;;;16.17;32.35;98120.00;5046877;28;20060;-63
2022/04/18 12:27:56;;;;;;;7.80;4.25;;;;;;;16.22;31.94;98102.69;5063086;28;20029;-63
2022/04/18 12:30:22;;;;;;;6.82;3.63;;;;;;;16.41;31.61;98116.09;5043726;28;20603;-59
2022/04/18 12:32:48;;;;;;;5.68;3.63;;;;;;;16.27;31.52;98094.25;5043525;28;20751;-60
2022/04/18 12:35:37;;;;;;;9.02;4.28;;;;;;;16.44;31.96;98106.00;5031270;28;21436;-60
2022/04/18 12:38:04;;;;;;;9.37;4.80;;;;;;;16.59;31.42;98105.91;5045821;28;20043;-59
2022/04/18 12:40:58;;;;;;;8.65;4.95;;;;;;;16.19;31.00;98053.25;5047606;28;20375;-61
2022/04/18 12:43:28;;;;;;;8.63;4.20;;;;;;;16.37;31.50;98089.44;5048320;28;20064;-61
2022/04/18 12:46:01;;;;;;;8.93;4.22;;;;;;;16.63;31.39;98088.75;5052390;28;20120;-61
2022/04/18 12:48:31;;;;;;;8.95;4.47;;;;;;;16.60;31.76;98083.88;5079117;28;20113;-61
2022/04/18 12:50:59;;;;;;;8.73;4.25;;;;;;;16.48;31.55;98043.47;5055327;28;20521;-60
2022/04/18 12:53:48;;;;;;;8.45;4.25;;;;;;;16.68;30.87;98082.91;5081022;27;20036;-60
2022/04/18 12:56:20;;;;;;;7.43;4.30;;;;;;;16.63;30.26;98072.19;5049526;28;20989;-61
2022/04/18 12:58:46;;;;;;;7.03;4.22;;;;;;;16.39;31.40;98031.53;5046840;28;20029;-62
2022/04/18 13:01:24;;;;;;;7.35;4.13;;;;;;;16.72;31.20;98069.19;5044667;28;20082;-62
2022/04/18 13:03:51;;;;;;;6.60;3.65;;;;;;;16.93;31.03;98074.53;5060971;28;20127;-62
2022/04/18 13:06:33;;;;;;;8.48;4.15;;;;;;;17.01;30.42;98069.91;5047374;28;20024;-61
2022/04/18 13:09:05;;;;;;;7.68;3.72;;;;;;;16.79;30.27;98015.88;5067256;28;20475;-62
2022/04/18 13:11:42;;;;;;;7.05;3.90;;;;;;;17.07;30.75;98055.19;5050636;28;20059;-62
2022/04/18 13:14:10;;;;;;;8.00;4.15;;;;;;;16.94;30.87;98015.75;5063556;28;20032;-59
2022/04/18 13:16:36;;;;;;;7.30;4.35;;;;;;;17.06;30.75;98045.66;5031447;28;20028;-62
2022/04/18 13:19:09;;;;;;;9.50;4.20;;;;;;;17.23;31.12;98048.69;5028863;28;20136;-61
2022/04/18 13:21:34;;;;;;;8.95;4.63;;;;;;;17.22;30.44;98052.34;5028867;28;20021;-61
2022/04/18 13:24:00;;;;;;;8.07;4.78;;;;;;;17.31;30.88;98042.47;5053276;28;20032;-59
2022/04/18 13:26:27;;;;;;;8.73;4.75;;;;;;;17.47;29.56;98044.69;5054073;28;20479;-59
2022/04/18 13:28:52;;;;;;;8.88;5.00;;;;;;;17.25;29.51;98033.56;5075105;28;20024;-59
2022/04/18 13:31:17;;;;;;;8.27;4.80;;;;;;;17.18;30.94;98035.38;5033631;28;20045;-60
2022/04/18 13:33:43;;;;;;;8.98;4.55;;;;;;;17.36;30.47;98035.59;5059565;28;20040;-62
2022/04/18 13:38:53;;;;;;;10.20;5.28;;;;;;;17.31;29.68;98031.97;5062057;28;20086;-64
2022/04/18 13:41:19;;;;;;;7.43;4.80;;;;;;;17.41;30.81;98020.03;5061073;28;20128;-61
2022/04/18 13:43:45;;;;;;;13.30;5.50;;;;;;;17.54;30.54;98008.69;5056328;28;20096;-60
2022/04/18 13:46:10;;;;;;;10.38;5.45;;;;;;;17.70;30.05;98025.03;5058296;28;20872;-59
2022/04/18 13:48:35;;;;;;;8.98;5.20;;;;;;;17.74;29.48;98008.66;5062158;28;20094;-61
2022/04/18 13:51:01;;;;;;;10.15;5.75;;;;;;;17.72;29.96;97991.47;5069265;28;20119;-60
2022/04/18 13:53:27;;;;;;;8.00;4.97;;;;;;;17.42;30.13;97961.19;5048430;28;20043;-60
2022/04/18 13:55:52;;;;;;;7.85;5.55;;;;;;;17.50;29.87;97957.53;5067971;28;20370;-60
2022/04/18 13:58:18;;;;;;;10.45;6.13;;;;;;;17.75;29.05;97985.81;5063397;28;20083;-59
2022/04/18 14:00:46;;;;;;;12.10;6.20;;;;;;;17.66;29.57;97993.09;5063464;28;20166;-59
2022/04/18 14:03:12;;;;;;;9.27;5.53;;;;;;;17.73;29.80;97974.69;5044940;28;20032;-58
2022/04/18 14:05:38;;;;;;;8.55;5.72;;;;;;;17.92;29.66;97983.56;5055935;28;20086;-62
2022/04/18 14:08:03;;;;;;;8.70;5.55;;;;;;;17.81;29.75;97942.91;5069225;28;20106;-60
2022/04/18 14:10:29;;;;;;;8.85;5.53;;;;;;;17.88;29.76;97988.44;5042967;28;20776;-58
2022/04/18 14:12:54;;;;;;;10.48;5.95;;;;;;;17.89;28.82;97971.66;5062817;28;20028;-60
2022/04/18 14:20:48;;;;;;;12.20;5.70;;;;;;;18.14;29.46;97971.72;5047599;28;20560;-60
2022/04/18 14:23:13;;;;;;;9.60;5.78;;;;;;;17.98;28.77;97928.31;5053300;28;20115;-62
2022/04/18 14:25:40;;;;;;;10.50;5.55;;;;;;;18.17;29.13;97960.00;5048265;28;20814;-58
2022/04/18 14:28:06;;;;;;;10.02;5.80;;;;;;;18.19;29.12;97952.69;5078946;27;20036;-62
2022/04/18 14:30:31;;;;;;;10.93;5.53;;;;;;;18.21;29.46;97948.84;5052945;28;20033;-61
2022/04/18 14:32:57;;;;;;;8.50;5.80;;;;;;;17.61;29.17;97874.63;5054222;28;20115;-61
2022/04/18 14:35:23;;;;;;;10.90;6.03;;;;;;;18.27;28.93;97943.75;5041212;28;20033;-61
2022/04/18 14:37:48;;;;;;;10.18;5.95;;;;;;;18.10;28.48;97912.66;5062783;28;20082;-61
2022/04/18 14:40:14;;;;;;;10.45;6.05;;;;;;;18.18;28.32;97925.59;5053567;28;20356;-61
2022/04/18 14:42:39;;;;;;;9.75;6.60;;;;;;;18.24;29.17;97931.84;5028185;28;20036;-61
2022/04/18 14:45:07;;;;;;;7.88;5.57;;;;;;;18.06;28.78;97900.97;5050073;28;20029;-64
2022/04/18 14:47:32;;;;;;;8.43;5.60;;;;;;;18.25;29.45;97923.75;5053155;28;20498;-59
2022/04/18 14:50:00;;;;;;;10.23;5.90;;;;;;;18.37;29.03;97936.22;5043957;28;20059;-63
2022/04/18 14:52:25;;;;;;;8.88;5.85;;;;;;;18.33;28.96;97935.03;4990080;28;24455;-63
2022/04/18 14:54:51;;;;;;;12.32;5.95;;;;;;;18.41;29.03;97930.31;5019154;28;20039;-62
2022/04/18 14:57:18;;;;;;;8.90;5.82;;;;;;;18.19;28.62;97927.19;5043774;28;20067;-62
2022/04/18 14:59:46;;;;;;;8.70;5.93;;;;;;;18.39;28.64;97932.34;5031107;28;20037;-61
2022/04/18 15:02:11;;;;;;;11.50;6.15;;;;;;;18.43;29.12;97928.28;5054345;28;20378;-60
2022/04/18 15:04:37;;;;;;;11.02;6.57;;;;;;;18.34;28.31;97894.53;5051046;28;20024;-62
2022/04/18 15:07:02;;;;;;;9.95;6.18;;;;;;;18.49;27.85;97931.06;5049686;28;20045;-60
2022/04/18 15:09:29;;;;;;;8.23;5.88;;;;;;;18.36;28.45;97919.63;5051885;28;20472;-61
2022/04/18 15:11:54;;;;;;;9.27;5.50;;;;;;;18.48;28.65;97932.91;5061627;28;20475;-59
2022/04/18 15:14:20;;;;;;;10.27;5.60;;;;;;;18.37;28.66;97926.50;5046576;28;20028;-62
2022/04/18 15:16:45;;;;;;;9.27;6.10;;;;;;;18.48;28.56;97925.00;5050836;28;20036;-62
2022/04/18 15:19:11;;;;;;;9.43;6.03;;;;;;;18.21;28.89;97888.31;5057919;28;20024;-61
2022/04/18 15:21:36;;;;;;;10.13;6.07;;;;;;;18.37;28.59;97883.59;5057474;28;20098;-61
2022/04/18 15:24:06;;;;;;;11.77;5.88;;;;;;;18.38;28.68;97885.19;5063641;28;20028;-60
2022/04/18 15:26:33;;;;;;;9.43;5.72;;;;;;;18.60;27.82;97909.34;5040949;28;20658;-60
2022/04/18 15:28:59;;;;;;;11.25;5.90;;;;;;;18.67;28.47;97915.34;5045940;28;20094;-61
2022/04/18 15:34:08;;;;;;;11.43;5.65;;;;;;;18.57;27.84;97915.03;5065686;28;20063;-64
2022/04/18 15:36:34;;;;;;;10.18;5.88;;;;;;;18.25;28.15;97876.38;5076490;28;20070;-61
2022/04/18 15:39:02;;;;;;;12.93;5.85;;;;;;;18.54;28.64;97910.19;5035330;28;20025;-62
2022/04/18 15:41:28;;;;;;;7.95;5.25;;;;;;;18.67;27.90;97909.28;5058425;28;20071;-62
2022/04/18 15:43:54;;;;;;;9.95;5.78;;;;;;;18.58;27.94;97906.94;5050617;28;20603;-58
2022/04/18 15:46:20;;;;;;;8.40;5.47;;;;;;;18.71;28.25;97911.31;5048767;28;20040;-61
2022/04/18 15:48:45;;;;;;;7.97;5.47;;;;;;;18.54;28.23;97910.19;5050024;28;20031;-60
2022/04/18 15:51:11;;;;;;;11.75;5.65;;;;;;;18.68;28.36;97916.19;5046689;28;20449;-63
2022/04/18 15:53:36;;;;;;;8.57;5.47;;;;;;;18.69;28.03;97910.72;5055757;28;20757;-61
2022/04/18 15:56:03;;;;;;;8.98;5.78;;;;;;;18.82;28.19;97910.63;5054054;28;20101;-63
2022/04/18 15:58:29;;;;;;;8.85;5.53;;;;;;;18.66;28.19;97915.59;5051500;28;20109;-62
2022/04/18 16:00:55;;;;;;;10.05;5.38;;;;;;;18.82;28.67;97913.25;5054979;28;20033;-64
2022/04/18 16:03:20;;;;;;;7.93;5.40;;;;;;;18.77;28.32;97907.81;5047976;28;20036;-60
2022/04/18 16:05:46;;;;;;;10.10;6.07;;;;;;;18.50;28.34;97870.31;5060331;28;20490;-63
2022/04/18 16:08:11;;;;;;;8.68;6.05;;;;;;;18.64;28.51;97889.47;5052021;28;20100;-62
2022/04/18 16:10:36;;;;;;;9.07;5.97;;;;;;;18.43;28.43;97865.09;5046290;28;20025;-61
2022/04/18 16:13:02;;;;;;;10.50;6.10;;;;;;;18.48;28.78;97914.47;5047382;28;20039;-64
2022/04/18 16:15:29;;;;;;;10.68;5.50;;;;;;;18.30;29.09;97917.81;5048835;28;20384;-64
2022/04/18 16:17:56;;;;;;;9.93;6.30;;;;;;;18.17;29.46;97925.81;5051312;28;20036;-59
2022/04/18 16:20:22;;;;;;;9.02;5.78;;;;;;;17.83;29.48;97923.28;5054464;28;20028;-61
2022/04/18 16:22:47;;;;;;;9.27;5.63;;;;;;;17.60;29.86;97881.69;5040855;28;20027;-62
2022/04/18 16:25:13;;;;;;;9.73;5.22;;;;;;;17.77;30.10;97923.31;5051483;28;20896;-62
2022/04/18 16:27:38;;;;;;;10.23;5.55;;;;;;;17.48;30.18;97873.63;5065818;28;20039;-60
2022/04/18 16:32:48;;;;;;;9.85;5.70;;;;;;;17.50;30.48;97918.13;5047273;28;20506;-61
2022/04/18 16:35:14;;;;;;;8.25;5.18;;;;;;;17.41;30.50;97895.69;5049336;28;20029;-59
2022/04/18 16:37:39;;;;;;;10.18;5.68;;;;;;;17.47;30.75;97910.66;5047510;28;20029;-59
2022/04/18 16:40:05;;;;;;;8.15;5.78;;;;;;;17.39;31.12;97919.53;5045137;28;20036;-63
2022/04/18 16:47:58;;;;;;;11.43;5.10;;;;;;;17.10;31.83;97913.75;5051870;28;20081;-65
2022/04/18 16:50:23;;;;;;;9.77;5.30;;;;;;;16.96;31.83;97914.75;5046612;28;20032;-62
2022/04/18 16:52:49;;;;;;;9.02;5.15;;;;;;;16.71;32.03;97904.03;5047429;28;20044;-61
2022/04/18 16:55:16;;;;;;;9.68;5.20;;;;;;;16.76;32.20;97913.94;5051279;28;20122;-62
2022/04/18 16:57:42;;;;;;;9.30;5.47;;;;;;;16.65;32.31;97904.84;5063407;28;20120;-61
